sensor_id;sensor_type;location;lat;lon;timestamp;temperature;humidity
31661;DHT22;18267;52.234;7.444;2023-02-25T00:01:11;5.40;99.90
31661;DHT22;18267;52.234;7.444;2023-02-25T00:03:37;5.40;99.90
31661;DHT22;18267;52.234;7.444;2023-02-25T00:06:05;5.40;99.90
31661;DHT22;18267;52.234;7.444;2023-02-25T00:08:31;5.40;99.90
31661;DHT22;18267;52.234;7.444;2023-02-25T00:11:04;5.30;99.90
31661;DHT22;18267;52.234;7.444;2023-02-25T00:13:31;5.30;99.90
31661;DHT22;18267;52.234;7.444;2023-02-25T00:15:56;5.40;99.90
31661;DHT22;18267;52.234;7.444;2023-02-25T00:18:26;5.30;99.90
31661;DHT22;18267;52.234;7.444;2023-02-25T00:20:52;5.40;99.90
31661;DHT22;18267;52.234;7.444;2023-02-25T00:23:18;5.40;99.90
31661;DHT22;18267;52.234;7.444;2023-02-25T00:25:44;5.40;99.90
31661;DHT22;18267;52.234;7.444;2023-02-25T00:28:10;5.40;99.90
31661;DHT22;18267;52.234;7.444;2023-02-25T00:30:37;5.40;99.90
31661;DHT22;18267;52.234;7.444;2023-02-25T00:33:03;5.50;99.90
31661;DHT22;18267;52.234;7.444;2023-02-25T00:35:31;5.50;99.90
31661;DHT22;18267;52.234;7.444;2023-02-25T00:37:56;5.50;99.90
31661;DHT22;18267;52.234;7.444;2023-02-25T00:40:22;5.40;99.90
31661;DHT22;18267;52.234;7.444;2023-02-25T00:42:47;5.30;99.90
31661;DHT22;18267;52.234;7.444;2023-02-25T00:45:14;5.30;99.90
31661;DHT22;18267;52.234;7.444;2023-02-25T00:47:39;5.30;99.90
31661;DHT22;18267;52.234;7.444;2023-02-25T00:50:06;5.30;99.90
31661;DHT22;18267;52.234;7.444;2023-02-25T00:52:34;5.30;99.90
31661;DHT22;18267;52.234;7.444;2023-02-25T00:55:00;5.30;99.90
31661;DHT22;18267;52.234;7.444;2023-02-25T00:57:25;5.40;99.90
31661;DHT22;18267;52.234;7.444;2023-02-25T00:59:51;5.40;99.90
31661;DHT22;18267;52.234;7.444;2023-02-25T01:02:16;5.50;99.90
31661;DHT22;18267;52.234;7.444;2023-02-25T01:04:42;5.60;99.90
31661;DHT22;18267;52.234;7.444;2023-02-25T01:07:08;5.50;99.90
31661;DHT22;18267;52.234;7.444;2023-02-25T01:09:35;5.50;99.90
31661;DHT22;18267;52.234;7.444;2023-02-25T01:12:01;5.40;99.90
31661;DHT22;18267;52.234;7.444;2023-02-25T01:14:26;5.40;99.90
31661;DHT22;18267;52.234;7.444;2023-02-25T01:16:52;5.50;99.90
31661;DHT22;18267;52.234;7.444;2023-02-25T01:19:23;5.50;99.90
31661;DHT22;18267;52.234;7.444;2023-02-25T01:21:52;5.40;99.90
31661;DHT22;18267;52.234;7.444;2023-02-25T01:24:21;5.50;99.90
31661;DHT22;18267;52.234;7.444;2023-02-25T01:26:49;5.50;99.90
31661;DHT22;18267;52.234;7.444;2023-02-25T01:29:17;5.60;99.90
31661;DHT22;18267;52.234;7.444;2023-02-25T01:31:44;5.50;99.90
31661;DHT22;18267;52.234;7.444;2023-02-25T01:34:14;5.40;99.90
31661;DHT22;18267;52.234;7.444;2023-02-25T01:36:40;5.50;99.90
31661;DHT22;18267;52.234;7.444;2023-02-25T01:39:06;5.50;99.90
31661;DHT22;18267;52.234;7.444;2023-02-25T01:41:33;5.40;99.90
31661;DHT22;18267;52.234;7.444;2023-02-25T01:44:13;5.30;99.90
31661;DHT22;18267;52.234;7.444;2023-02-25T01:46:41;5.40;99.90
31661;DHT22;18267;52.234;7.444;2023-02-25T01:49:14;5.30;99.90
31661;DHT22;18267;52.234;7.444;2023-02-25T01:51:43;5.20;99.90
31661;DHT22;18267;52.234;7.444;2023-02-25T01:54:10;5.20;99.90
31661;DHT22;18267;52.234;7.444;2023-02-25T01:56:39;5.20;99.90
31661;DHT22;18267;52.234;7.444;2023-02-25T01:59:06;5.20;99.90
31661;DHT22;18267;52.234;7.444;2023-02-25T02:01:32;5.20;99.90
31661;DHT22;18267;52.234;7.444;2023-02-25T02:04:00;5.20;99.90
31661;DHT22;18267;52.234;7.444;2023-02-25T02:06:38;5.30;99.90
31661;DHT22;18267;52.234;7.444;2023-02-25T02:09:06;5.20;99.90
31661;DHT22;18267;52.234;7.444;2023-02-25T02:11:33;5.10;99.90
31661;DHT22;18267;52.234;7.444;2023-02-25T02:14:00;5.00;99.90
31661;DHT22;18267;52.234;7.444;2023-02-25T02:22:12;5.00;99.90
31661;DHT22;18267;52.234;7.444;2023-02-25T02:30:27;5.00;99.90
31661;DHT22;18267;52.234;7.444;2023-02-25T02:38:32;4.90;99.90
31661;DHT22;18267;52.234;7.444;2023-02-25T02:41:22;4.90;99.90
31661;DHT22;18267;52.234;7.444;2023-02-25T02:46:35;4.90;99.90
31661;DHT22;18267;52.234;7.444;2023-02-25T02:49:26;4.80;99.90
31661;DHT22;18267;52.234;7.444;2023-02-25T02:52:03;4.80;99.90
31661;DHT22;18267;52.234;7.444;2023-02-25T02:54:36;4.90;99.90
31661;DHT22;18267;52.234;7.444;2023-02-25T02:57:04;4.80;99.90
31661;DHT22;18267;52.234;7.444;2023-02-25T03:00:04;4.80;99.90
31661;DHT22;18267;52.234;7.444;2023-02-25T03:02:49;4.80;99.90
31661;DHT22;18267;52.234;7.444;2023-02-25T03:05:17;4.80;99.90
31661;DHT22;18267;52.234;7.444;2023-02-25T03:07:56;4.70;99.90
31661;DHT22;18267;52.234;7.444;2023-02-25T03:10:24;4.70;99.90
31661;DHT22;18267;52.234;7.444;2023-02-25T03:12:51;4.80;99.90
31661;DHT22;18267;52.234;7.444;2023-02-25T03:15:16;4.80;99.90
31661;DHT22;18267;52.234;7.444;2023-02-25T03:17:45;4.80;99.90
31661;DHT22;18267;52.234;7.444;2023-02-25T03:20:39;4.70;99.90
31661;DHT22;18267;52.234;7.444;2023-02-25T03:23:10;4.80;99.90
31661;DHT22;18267;52.234;7.444;2023-02-25T03:25:55;4.80;99.90
31661;DHT22;18267;52.234;7.444;2023-02-25T03:28:30;4.80;99.90
31661;DHT22;18267;52.234;7.444;2023-02-25T03:31:06;4.80;99.90
31661;DHT22;18267;52.234;7.444;2023-02-25T03:33:45;4.90;99.90
31661;DHT22;18267;52.234;7.444;2023-02-25T03:36:29;4.90;99.90
31661;DHT22;18267;52.234;7.444;2023-02-25T03:38:58;4.90;99.90
31661;DHT22;18267;52.234;7.444;2023-02-25T03:41:28;5.10;99.90
31661;DHT22;18267;52.234;7.444;2023-02-25T03:43:57;5.00;99.90
31661;DHT22;18267;52.234;7.444;2023-02-25T03:46:24;5.10;99.90
31661;DHT22;18267;52.234;7.444;2023-02-25T03:48:51;5.10;99.90
31661;DHT22;18267;52.234;7.444;2023-02-25T03:51:22;5.20;99.90
31661;DHT22;18267;52.234;7.444;2023-02-25T03:53:49;5.10;99.90
31661;DHT22;18267;52.234;7.444;2023-02-25T03:56:15;5.20;99.90
31661;DHT22;18267;52.234;7.444;2023-02-25T03:58:43;5.20;99.90
31661;DHT22;18267;52.234;7.444;2023-02-25T04:01:13;5.20;99.90
31661;DHT22;18267;52.234;7.444;2023-02-25T04:03:39;5.20;99.90
31661;DHT22;18267;52.234;7.444;2023-02-25T04:06:05;5.30;99.90
31661;DHT22;18267;52.234;7.444;2023-02-25T04:08:30;5.40;99.90
31661;DHT22;18267;52.234;7.444;2023-02-25T04:10:56;5.40;99.90
31661;DHT22;18267;52.234;7.444;2023-02-25T04:13:22;5.30;99.90
31661;DHT22;18267;52.234;7.444;2023-02-25T04:15:48;5.30;99.90
31661;DHT22;18267;52.234;7.444;2023-02-25T04:18:14;5.30;99.90
31661;DHT22;18267;52.234;7.444;2023-02-25T04:20:40;5.20;99.90
31661;DHT22;18267;52.234;7.444;2023-02-25T04:23:06;5.20;99.90
31661;DHT22;18267;52.234;7.444;2023-02-25T04:25:32;5.20;99.90
31661;DHT22;18267;52.234;7.444;2023-02-25T04:27:58;5.20;99.90
31661;DHT22;18267;52.234;7.444;2023-02-25T04:30:23;5.30;99.90
31661;DHT22;18267;52.234;7.444;2023-02-25T04:32:49;5.30;99.90
31661;DHT22;18267;52.234;7.444;2023-02-25T04:35:15;5.30;99.90
31661;DHT22;18267;52.234;7.444;2023-02-25T04:37:41;5.30;99.90
31661;DHT22;18267;52.234;7.444;2023-02-25T04:40:13;5.20;99.90
31661;DHT22;18267;52.234;7.444;2023-02-25T04:42:39;5.20;99.90
31661;DHT22;18267;52.234;7.444;2023-02-25T04:45:06;5.20;99.90
31661;DHT22;18267;52.234;7.444;2023-02-25T04:47:32;5.20;99.90
31661;DHT22;18267;52.234;7.444;2023-02-25T04:49:58;5.00;99.90
31661;DHT22;18267;52.234;7.444;2023-02-25T04:52:23;5.00;99.90
31661;DHT22;18267;52.234;7.444;2023-02-25T04:54:49;5.00;99.90
31661;DHT22;18267;52.234;7.444;2023-02-25T04:57:15;5.00;99.90
31661;DHT22;18267;52.234;7.444;2023-02-25T04:59:41;5.00;99.90
31661;DHT22;18267;52.234;7.444;2023-02-25T05:02:07;4.90;99.90
31661;DHT22;18267;52.234;7.444;2023-02-25T05:04:34;4.80;99.90
31661;DHT22;18267;52.234;7.444;2023-02-25T05:06:59;4.80;99.90
31661;DHT22;18267;52.234;7.444;2023-02-25T05:09:25;4.80;99.90
31661;DHT22;18267;52.234;7.444;2023-02-25T05:11:51;4.70;99.90
31661;DHT22;18267;52.234;7.444;2023-02-25T05:14:16;4.60;99.90
31661;DHT22;18267;52.234;7.444;2023-02-25T05:16:42;4.60;99.90
31661;DHT22;18267;52.234;7.444;2023-02-25T05:19:08;4.50;99.90
31661;DHT22;18267;52.234;7.444;2023-02-25T05:21:33;4.50;99.90
31661;DHT22;18267;52.234;7.444;2023-02-25T05:23:59;4.60;99.90
31661;DHT22;18267;52.234;7.444;2023-02-25T05:26:24;4.60;99.90
31661;DHT22;18267;52.234;7.444;2023-02-25T05:28:52;4.60;99.90
31661;DHT22;18267;52.234;7.444;2023-02-25T05:31:19;4.60;99.90
31661;DHT22;18267;52.234;7.444;2023-02-25T05:33:45;4.60;99.90
31661;DHT22;18267;52.234;7.444;2023-02-25T05:36:13;4.60;99.90
31661;DHT22;18267;52.234;7.444;2023-02-25T05:38:39;4.60;99.90
31661;DHT22;18267;52.234;7.444;2023-02-25T05:41:06;4.60;99.90
31661;DHT22;18267;52.234;7.444;2023-02-25T05:43:32;4.80;99.90
31661;DHT22;18267;52.234;7.444;2023-02-25T05:45:59;4.80;99.90
31661;DHT22;18267;52.234;7.444;2023-02-25T05:48:28;4.80;99.90
31661;DHT22;18267;52.234;7.444;2023-02-25T05:51:00;4.80;99.90
31661;DHT22;18267;52.234;7.444;2023-02-25T05:53:26;4.80;99.90
31661;DHT22;18267;52.234;7.444;2023-02-25T05:55:52;4.80;99.90
31661;DHT22;18267;52.234;7.444;2023-02-25T05:58:20;4.90;99.90
31661;DHT22;18267;52.234;7.444;2023-02-25T06:00:45;4.90;99.90
31661;DHT22;18267;52.234;7.444;2023-02-25T06:03:11;4.90;99.90
31661;DHT22;18267;52.234;7.444;2023-02-25T06:05:39;4.90;99.90
31661;DHT22;18267;52.234;7.444;2023-02-25T06:08:06;4.80;99.90
31661;DHT22;18267;52.234;7.444;2023-02-25T06:10:32;4.80;99.90
31661;DHT22;18267;52.234;7.444;2023-02-25T06:13:04;4.70;99.90
31661;DHT22;18267;52.234;7.444;2023-02-25T06:15:29;4.70;99.90
31661;DHT22;18267;52.234;7.444;2023-02-25T06:17:55;4.70;99.90
31661;DHT22;18267;52.234;7.444;2023-02-25T06:20:20;4.70;99.90
31661;DHT22;18267;52.234;7.444;2023-02-25T06:22:50;4.70;99.90
31661;DHT22;18267;52.234;7.444;2023-02-25T06:25:16;4.70;99.90
31661;DHT22;18267;52.234;7.444;2023-02-25T06:27:42;4.60;99.90
31661;DHT22;18267;52.234;7.444;2023-02-25T06:30:08;4.60;99.90
31661;DHT22;18267;52.234;7.444;2023-02-25T06:32:34;4.60;99.90
31661;DHT22;18267;52.234;7.444;2023-02-25T06:34:59;4.60;99.90
31661;DHT22;18267;52.234;7.444;2023-02-25T06:37:25;4.50;99.90
31661;DHT22;18267;52.234;7.444;2023-02-25T06:39:51;4.60;99.90
31661;DHT22;18267;52.234;7.444;2023-02-25T06:42:17;4.50;99.90
31661;DHT22;18267;52.234;7.444;2023-02-25T06:44:42;4.50;99.90
31661;DHT22;18267;52.234;7.444;2023-02-25T06:47:08;4.60;99.90
31661;DHT22;18267;52.234;7.444;2023-02-25T06:49:34;4.50;99.90
31661;DHT22;18267;52.234;7.444;2023-02-25T06:51:59;4.60;99.90
31661;DHT22;18267;52.234;7.444;2023-02-25T06:54:25;4.50;99.90
31661;DHT22;18267;52.234;7.444;2023-02-25T06:56:52;4.50;99.90
31661;DHT22;18267;52.234;7.444;2023-02-25T06:59:18;4.50;99.90
31661;DHT22;18267;52.234;7.444;2023-02-25T07:01:44;4.50;99.90
31661;DHT22;18267;52.234;7.444;2023-02-25T07:04:14;4.50;99.90
31661;DHT22;18267;52.234;7.444;2023-02-25T07:06:40;4.50;99.90
31661;DHT22;18267;52.234;7.444;2023-02-25T07:09:06;4.50;99.90
31661;DHT22;18267;52.234;7.444;2023-02-25T07:11:32;4.50;99.90
31661;DHT22;18267;52.234;7.444;2023-02-25T07:14:00;4.50;99.90
31661;DHT22;18267;52.234;7.444;2023-02-25T07:16:26;4.60;99.90
31661;DHT22;18267;52.234;7.444;2023-02-25T07:18:54;4.60;99.90
31661;DHT22;18267;52.234;7.444;2023-02-25T07:21:20;4.60;99.90
31661;DHT22;18267;52.234;7.444;2023-02-25T07:23:47;4.60;99.90
31661;DHT22;18267;52.234;7.444;2023-02-25T07:26:14;4.60;99.90
31661;DHT22;18267;52.234;7.444;2023-02-25T07:28:39;4.60;99.90
31661;DHT22;18267;52.234;7.444;2023-02-25T07:31:13;4.60;99.90
31661;DHT22;18267;52.234;7.444;2023-02-25T07:33:39;4.60;99.90
31661;DHT22;18267;52.234;7.444;2023-02-25T07:36:06;4.70;99.90
31661;DHT22;18267;52.234;7.444;2023-02-25T07:38:32;4.70;99.90
31661;DHT22;18267;52.234;7.444;2023-02-25T07:41:04;4.70;99.90
31661;DHT22;18267;52.234;7.444;2023-02-25T07:43:29;4.60;99.90
31661;DHT22;18267;52.234;7.444;2023-02-25T07:45:58;4.50;99.90
31661;DHT22;18267;52.234;7.444;2023-02-25T07:48:24;4.50;99.90
31661;DHT22;18267;52.234;7.444;2023-02-25T07:50:50;4.40;99.90
31661;DHT22;18267;52.234;7.444;2023-02-25T07:53:15;4.40;99.90
31661;DHT22;18267;52.234;7.444;2023-02-25T07:55:42;4.50;99.90
31661;DHT22;18267;52.234;7.444;2023-02-25T07:58:10;4.50;99.90
31661;DHT22;18267;52.234;7.444;2023-02-25T08:00:35;4.70;99.90
31661;DHT22;18267;52.234;7.444;2023-02-25T08:03:04;4.70;99.90
31661;DHT22;18267;52.234;7.444;2023-02-25T08:05:33;4.80;99.90
31661;DHT22;18267;52.234;7.444;2023-02-25T08:07:59;4.80;99.90
31661;DHT22;18267;52.234;7.444;2023-02-25T08:10:24;4.90;99.90
31661;DHT22;18267;52.234;7.444;2023-02-25T08:12:50;4.80;99.90
31661;DHT22;18267;52.234;7.444;2023-02-25T08:15:15;4.80;99.90
31661;DHT22;18267;52.234;7.444;2023-02-25T08:17:41;4.80;99.90
31661;DHT22;18267;52.234;7.444;2023-02-25T08:20:07;4.80;99.90
31661;DHT22;18267;52.234;7.444;2023-02-25T08:22:33;4.80;99.90
31661;DHT22;18267;52.234;7.444;2023-02-25T08:24:59;4.90;99.90
31661;DHT22;18267;52.234;7.444;2023-02-25T08:27:25;4.90;99.90
31661;DHT22;18267;52.234;7.444;2023-02-25T08:29:50;4.90;99.90
31661;DHT22;18267;52.234;7.444;2023-02-25T08:32:16;4.90;99.90
31661;DHT22;18267;52.234;7.444;2023-02-25T08:34:42;4.80;99.90
31661;DHT22;18267;52.234;7.444;2023-02-25T08:37:09;4.70;99.90
31661;DHT22;18267;52.234;7.444;2023-02-25T08:39:37;4.60;99.90
31661;DHT22;18267;52.234;7.444;2023-02-25T08:42:03;4.50;99.90
31661;DHT22;18267;52.234;7.444;2023-02-25T08:44:29;4.50;99.90
31661;DHT22;18267;52.234;7.444;2023-02-25T08:46:55;4.60;99.90
31661;DHT22;18267;52.234;7.444;2023-02-25T08:49:20;4.70;99.90
31661;DHT22;18267;52.234;7.444;2023-02-25T08:51:49;4.70;99.90
31661;DHT22;18267;52.234;7.444;2023-02-25T08:54:15;4.80;99.90
31661;DHT22;18267;52.234;7.444;2023-02-25T08:56:41;4.80;99.90
31661;DHT22;18267;52.234;7.444;2023-02-25T08:59:10;4.70;99.90
31661;DHT22;18267;52.234;7.444;2023-02-25T09:01:37;4.70;99.90
31661;DHT22;18267;52.234;7.444;2023-02-25T09:04:10;4.60;99.90
31661;DHT22;18267;52.234;7.444;2023-02-25T09:06:36;4.70;99.90
31661;DHT22;18267;52.234;7.444;2023-02-25T09:09:01;4.60;99.90
31661;DHT22;18267;52.234;7.444;2023-02-25T09:11:27;4.60;99.90
31661;DHT22;18267;52.234;7.444;2023-02-25T09:13:53;4.70;99.90
31661;DHT22;18267;52.234;7.444;2023-02-25T09:16:19;4.70;99.90
31661;DHT22;18267;52.234;7.444;2023-02-25T09:18:48;4.70;99.90
31661;DHT22;18267;52.234;7.444;2023-02-25T09:21:14;4.70;99.90
31661;DHT22;18267;52.234;7.444;2023-02-25T09:23:40;4.80;99.90
31661;DHT22;18267;52.234;7.444;2023-02-25T09:26:06;4.90;99.90
31661;DHT22;18267;52.234;7.444;2023-02-25T09:28:32;5.00;99.90
31661;DHT22;18267;52.234;7.444;2023-02-25T09:30:58;5.10;99.90
31661;DHT22;18267;52.234;7.444;2023-02-25T09:33:24;5.00;99.90
31661;DHT22;18267;52.234;7.444;2023-02-25T09:35:50;4.80;99.90
31661;DHT22;18267;52.234;7.444;2023-02-25T09:38:17;4.80;99.90
31661;DHT22;18267;52.234;7.444;2023-02-25T09:40:46;4.70;99.90
31661;DHT22;18267;52.234;7.444;2023-02-25T09:43:25;4.70;99.90
31661;DHT22;18267;52.234;7.444;2023-02-25T09:45:58;4.80;99.90
31661;DHT22;18267;52.234;7.444;2023-02-25T09:48:30;4.90;99.90
31661;DHT22;18267;52.234;7.444;2023-02-25T09:51:21;4.90;99.90
31661;DHT22;18267;52.234;7.444;2023-02-25T09:53:52;4.90;99.90
31661;DHT22;18267;52.234;7.444;2023-02-25T09:56:19;5.00;99.90
31661;DHT22;18267;52.234;7.444;2023-02-25T09:58:52;5.10;99.90
31661;DHT22;18267;52.234;7.444;2023-02-25T10:01:38;5.10;99.90
31661;DHT22;18267;52.234;7.444;2023-02-25T10:04:16;5.20;99.90
31661;DHT22;18267;52.234;7.444;2023-02-25T10:06:48;5.10;99.90
31661;DHT22;18267;52.234;7.444;2023-02-25T10:12:34;5.20;99.90
31661;DHT22;18267;52.234;7.444;2023-02-25T10:15:03;5.40;99.90
31661;DHT22;18267;52.234;7.444;2023-02-25T10:23:43;5.30;99.90
31661;DHT22;18267;52.234;7.444;2023-02-25T10:26:38;5.30;99.90
31661;DHT22;18267;52.234;7.444;2023-02-25T10:29:11;5.40;99.90
31661;DHT22;18267;52.234;7.444;2023-02-25T10:31:38;5.40;99.90
31661;DHT22;18267;52.234;7.444;2023-02-25T10:34:23;5.40;99.90
31661;DHT22;18267;52.234;7.444;2023-02-25T10:36:54;5.30;99.90
31661;DHT22;18267;52.234;7.444;2023-02-25T10:39:21;5.30;99.90
31661;DHT22;18267;52.234;7.444;2023-02-25T10:41:47;5.30;99.90
31661;DHT22;18267;52.234;7.444;2023-02-25T10:44:13;5.20;99.90
31661;DHT22;18267;52.234;7.444;2023-02-25T10:46:58;5.10;99.90
31661;DHT22;18267;52.234;7.444;2023-02-25T10:49:26;5.00;99.90
31661;DHT22;18267;52.234;7.444;2023-02-25T10:54:22;5.00;99.90
31661;DHT22;18267;52.234;7.444;2023-02-25T10:56:49;5.10;99.90
31661;DHT22;18267;52.234;7.444;2023-02-25T10:59:31;5.20;99.90
31661;DHT22;18267;52.234;7.444;2023-02-25T11:01:59;5.20;99.90
31661;DHT22;18267;52.234;7.444;2023-02-25T11:04:34;5.30;99.90
31661;DHT22;18267;52.234;7.444;2023-02-25T11:07:00;5.40;99.90
31661;DHT22;18267;52.234;7.444;2023-02-25T11:09:31;5.50;99.90
31661;DHT22;18267;52.234;7.444;2023-02-25T11:12:15;5.50;99.90
31661;DHT22;18267;52.234;7.444;2023-02-25T11:14:45;5.40;99.90
31661;DHT22;18267;52.234;7.444;2023-02-25T11:17:17;5.50;99.90
31661;DHT22;18267;52.234;7.444;2023-02-25T11:19:57;5.50;99.90
31661;DHT22;18267;52.234;7.444;2023-02-25T11:22:35;5.40;99.90
31661;DHT22;18267;52.234;7.444;2023-02-25T11:25:05;5.30;99.90
31661;DHT22;18267;52.234;7.444;2023-02-25T11:27:37;5.20;99.90
31661;DHT22;18267;52.234;7.444;2023-02-25T11:32:53;5.20;99.90
31661;DHT22;18267;52.234;7.444;2023-02-25T11:35:25;5.30;99.90
31661;DHT22;18267;52.234;7.444;2023-02-25T11:37:57;5.30;98.70
31661;DHT22;18267;52.234;7.444;2023-02-25T11:40:28;5.30;97.20
31661;DHT22;18267;52.234;7.444;2023-02-25T11:45:44;5.50;95.30
31661;DHT22;18267;52.234;7.444;2023-02-25T11:48:43;5.40;96.00
31661;DHT22;18267;52.234;7.444;2023-02-25T11:51:26;5.40;97.50
31661;DHT22;18267;52.234;7.444;2023-02-25T11:54:17;5.50;98.80
31661;DHT22;18267;52.234;7.444;2023-02-25T11:56:52;5.70;99.40
31661;DHT22;18267;52.234;7.444;2023-02-25T12:10:16;5.40;98.30
31661;DHT22;18267;52.234;7.444;2023-02-25T12:13:18;5.50;98.70
31661;DHT22;18267;52.234;7.444;2023-02-25T12:33:08;5.40;96.90
31661;DHT22;18267;52.234;7.444;2023-02-25T12:42:05;5.50;95.10
31661;DHT22;18267;52.234;7.444;2023-02-25T12:45:00;5.40;95.90
31661;DHT22;18267;52.234;7.444;2023-02-25T12:47:48;5.70;96.50
31661;DHT22;18267;52.234;7.444;2023-02-25T12:53:08;5.90;98.40
31661;DHT22;18267;52.234;7.444;2023-02-25T12:58:50;5.40;94.70
31661;DHT22;18267;52.234;7.444;2023-02-25T13:07:32;5.30;97.60
31661;DHT22;18267;52.234;7.444;2023-02-25T13:10:31;5.50;98.50
31661;DHT22;18267;52.234;7.444;2023-02-25T13:16:14;5.60;97.10
31661;DHT22;18267;52.234;7.444;2023-02-25T13:24:48;5.60;97.50
31661;DHT22;18267;52.234;7.444;2023-02-25T13:27:34;5.60;97.70
31661;DHT22;18267;52.234;7.444;2023-02-25T13:30:23;5.40;96.00
31661;DHT22;18267;52.234;7.444;2023-02-25T13:33:18;5.50;96.50
31661;DHT22;18267;52.234;7.444;2023-02-25T13:41:52;5.50;95.00
31661;DHT22;18267;52.234;7.444;2023-02-25T13:44:36;5.50;97.00
31661;DHT22;18267;52.234;7.444;2023-02-25T13:52:43;5.60;97.70
31661;DHT22;18267;52.234;7.444;2023-02-25T13:58:31;5.70;95.70
31661;DHT22;18267;52.234;7.444;2023-02-25T14:04:05;5.60;94.50
31661;DHT22;18267;52.234;7.444;2023-02-25T14:17:42;5.60;94.80
31661;DHT22;18267;52.234;7.444;2023-02-25T14:23:22;5.50;96.30
31661;DHT22;18267;52.234;7.444;2023-02-25T14:26:15;5.50;97.00
31661;DHT22;18267;52.234;7.444;2023-02-25T14:34:45;5.50;94.10
31661;DHT22;18267;52.234;7.444;2023-02-25T14:37:33;5.40;94.80
31661;DHT22;18267;52.234;7.444;2023-02-25T14:45:35;5.40;94.50
31661;DHT22;18267;52.234;7.444;2023-02-25T14:50:51;5.40;94.20
31661;DHT22;18267;52.234;7.444;2023-02-25T14:59:34;5.40;95.20
31661;DHT22;18267;52.234;7.444;2023-02-25T15:08:00;5.30;92.70
31661;DHT22;18267;52.234;7.444;2023-02-25T15:13:51;5.40;92.60
31661;DHT22;18267;52.234;7.444;2023-02-25T15:16:25;5.30;92.80
31661;DHT22;18267;52.234;7.444;2023-02-25T15:22:28;5.40;94.10
31661;DHT22;18267;52.234;7.444;2023-02-25T15:27:47;5.30;94.90
31661;DHT22;18267;52.234;7.444;2023-02-25T15:30:21;5.40;95.20
31661;DHT22;18267;52.234;7.444;2023-02-25T15:42:57;5.20;93.50
31661;DHT22;18267;52.234;7.444;2023-02-25T15:55:47;5.10;94.00
31661;DHT22;18267;52.234;7.444;2023-02-25T16:05:53;4.90;96.80
31661;DHT22;18267;52.234;7.444;2023-02-25T16:08:24;5.00;96.50
31661;DHT22;18267;52.234;7.444;2023-02-25T16:10:54;4.90;96.70
31661;DHT22;18267;52.234;7.444;2023-02-25T16:13:25;4.80;96.70
31661;DHT22;18267;52.234;7.444;2023-02-25T16:15:53;4.70;96.50
31661;DHT22;18267;52.234;7.444;2023-02-25T16:18:38;4.60;96.90
31661;DHT22;18267;52.234;7.444;2023-02-25T16:21:14;4.60;97.30
31661;DHT22;18267;52.234;7.444;2023-02-25T16:23:42;4.60;97.30
31661;DHT22;18267;52.234;7.444;2023-02-25T16:26:28;4.60;97.50
31661;DHT22;18267;52.234;7.444;2023-02-25T16:31:53;4.50;97.50
31661;DHT22;18267;52.234;7.444;2023-02-25T16:34:46;4.50;98.00
31661;DHT22;18267;52.234;7.444;2023-02-25T16:40:24;4.40;99.00
31661;DHT22;18267;52.234;7.444;2023-02-25T16:42:50;4.40;98.50
31661;DHT22;18267;52.234;7.444;2023-02-25T16:45:26;4.30;98.90
31661;DHT22;18267;52.234;7.444;2023-02-25T16:48:04;4.30;99.00
31661;DHT22;18267;52.234;7.444;2023-02-25T16:50:31;4.30;99.30
31661;DHT22;18267;52.234;7.444;2023-02-25T16:52:59;4.30;99.20
31661;DHT22;18267;52.234;7.444;2023-02-25T16:55:29;4.30;99.60
31661;DHT22;18267;52.234;7.444;2023-02-25T17:03:17;4.10;99.90
31661;DHT22;18267;52.234;7.444;2023-02-25T17:05:43;4.20;99.80
31661;DHT22;18267;52.234;7.444;2023-02-25T17:08:22;4.20;99.90
31661;DHT22;18267;52.234;7.444;2023-02-25T17:10:50;4.10;99.90
31661;DHT22;18267;52.234;7.444;2023-02-25T17:13:35;4.20;99.90
31661;DHT22;18267;52.234;7.444;2023-02-25T17:16:03;4.10;99.90
31661;DHT22;18267;52.234;7.444;2023-02-25T17:18:30;4.00;99.90
31661;DHT22;18267;52.234;7.444;2023-02-25T17:21:06;4.00;99.90
31661;DHT22;18267;52.234;7.444;2023-02-25T17:23:38;4.00;99.90
31661;DHT22;18267;52.234;7.444;2023-02-25T17:26:05;4.00;99.90
31661;DHT22;18267;52.234;7.444;2023-02-25T17:28:31;3.90;99.90
31661;DHT22;18267;52.234;7.444;2023-02-25T17:31:05;3.90;99.90
31661;DHT22;18267;52.234;7.444;2023-02-25T17:33:32;3.90;99.90
31661;DHT22;18267;52.234;7.444;2023-02-25T17:36:02;3.80;99.90
31661;DHT22;18267;52.234;7.444;2023-02-25T17:38:29;3.80;99.90
31661;DHT22;18267;52.234;7.444;2023-02-25T17:40:55;3.80;99.90
31661;DHT22;18267;52.234;7.444;2023-02-25T17:43:35;3.80;99.90
31661;DHT22;18267;52.234;7.444;2023-02-25T17:49:01;3.70;99.90
31661;DHT22;18267;52.234;7.444;2023-02-25T17:51:29;3.70;99.90
31661;DHT22;18267;52.234;7.444;2023-02-25T17:53:58;3.60;99.90
31661;DHT22;18267;52.234;7.444;2023-02-25T17:56:30;3.60;99.90
31661;DHT22;18267;52.234;7.444;2023-02-25T18:01:53;3.50;99.90
31661;DHT22;18267;52.234;7.444;2023-02-25T18:06:47;3.40;99.90
31661;DHT22;18267;52.234;7.444;2023-02-25T18:09:28;3.30;99.90
31661;DHT22;18267;52.234;7.444;2023-02-25T18:11:57;3.30;99.90
31661;DHT22;18267;52.234;7.444;2023-02-25T18:14:31;3.30;99.90
31661;DHT22;18267;52.234;7.444;2023-02-25T18:16:57;3.20;99.90
31661;DHT22;18267;52.234;7.444;2023-02-25T18:21:56;3.20;99.90
31661;DHT22;18267;52.234;7.444;2023-02-25T18:24:31;3.20;99.90
31661;DHT22;18267;52.234;7.444;2023-02-25T18:27:37;3.10;99.90
31661;DHT22;18267;52.234;7.444;2023-02-25T18:30:00;3.10;99.90
31661;DHT22;18267;52.234;7.444;2023-02-25T18:32:29;3.10;99.90
31661;DHT22;18267;52.234;7.444;2023-02-25T18:34:54;3.00;99.90
31661;DHT22;18267;52.234;7.444;2023-02-25T18:37:20;3.00;99.90
31661;DHT22;18267;52.234;7.444;2023-02-25T18:39:46;3.00;99.90
31661;DHT22;18267;52.234;7.444;2023-02-25T18:42:14;3.00;99.90
31661;DHT22;18267;52.234;7.444;2023-02-25T18:44:41;3.00;99.90
31661;DHT22;18267;52.234;7.444;2023-02-25T18:47:07;3.00;99.90
31661;DHT22;18267;52.234;7.444;2023-02-25T18:49:33;3.00;99.90
31661;DHT22;18267;52.234;7.444;2023-02-25T18:51:58;3.00;99.90
31661;DHT22;18267;52.234;7.444;2023-02-25T18:54:24;3.00;99.90
31661;DHT22;18267;52.234;7.444;2023-02-25T18:56:49;2.90;99.90
31661;DHT22;18267;52.234;7.444;2023-02-25T18:59:15;2.80;99.90
31661;DHT22;18267;52.234;7.444;2023-02-25T19:01:41;2.90;99.90
31661;DHT22;18267;52.234;7.444;2023-02-25T19:04:13;2.80;99.90
31661;DHT22;18267;52.234;7.444;2023-02-25T19:06:40;2.80;99.90
31661;DHT22;18267;52.234;7.444;2023-02-25T19:09:05;2.80;99.90
31661;DHT22;18267;52.234;7.444;2023-02-25T19:11:33;2.80;99.90
31661;DHT22;18267;52.234;7.444;2023-02-25T19:14:00;2.80;99.90
31661;DHT22;18267;52.234;7.444;2023-02-25T19:16:26;2.80;99.90
31661;DHT22;18267;52.234;7.444;2023-02-25T19:18:52;2.80;99.90
31661;DHT22;18267;52.234;7.444;2023-02-25T19:21:19;2.70;99.90
31661;DHT22;18267;52.234;7.444;2023-02-25T19:23:45;2.70;99.90
31661;DHT22;18267;52.234;7.444;2023-02-25T19:26:11;2.70;99.90
31661;DHT22;18267;52.234;7.444;2023-02-25T19:28:37;2.70;99.90
31661;DHT22;18267;52.234;7.444;2023-02-25T19:31:06;2.70;99.90
31661;DHT22;18267;52.234;7.444;2023-02-25T19:33:32;2.60;99.90